Time;durP1;ratioP1;P1;durP2;ratioP2;P2;SDS_P1;SDS_P2;PMS_P1;PMS_P2;Temp;Humidity;BMP_temperature;BMP_pressure;BME280_temperature;BME280_humidity;BME280_pressure;Samples;Min_cycle;Max_cycle;Signal;HPM_P1;HPM_P2
2022/07/18 00:01:58;;;;;;;5.57;3.10;;;26.30;61.20;;;;;;4824158;29;20027;-75
2022/07/18 00:04:24;;;;;;;7.28;2.58;;;26.40;61.00;;;;;;4825101;29;20026;-75
2022/07/18 00:06:50;;;;;;;5.18;2.72;;;26.30;61.10;;;;;;4839150;29;20034;-75
2022/07/18 00:09:17;;;;;;;5.47;2.88;;;26.20;61.30;;;;;;4824680;29;20057;-75
2022/07/18 00:11:44;;;;;;;4.38;2.75;;;26.30;61.40;;;;;;4854162;29;20030;-75
2022/07/18 00:14:09;;;;;;;4.43;2.78;;;26.10;61.90;;;;;;4824919;29;20093;-75
2022/07/18 00:16:35;;;;;;;7.30;2.42;;;26.00;62.10;;;;;;4830527;29;20030;-76
2022/07/18 00:19:02;;;;;;;6.10;2.67;;;26.00;62.20;;;;;;4843325;29;20082;-75
2022/07/18 00:21:28;;;;;;;4.50;2.90;;;25.90;62.70;;;;;;4837831;29;20026;-75
2022/07/18 00:23:53;;;;;;;5.85;2.80;;;25.80;62.90;;;;;;4825060;29;20353;-75
2022/07/18 00:26:19;;;;;;;5.57;2.60;;;25.80;62.70;;;;;;4824640;29;20110;-75
2022/07/18 00:28:45;;;;;;;5.05;2.42;;;25.90;62.40;;;;;;4824932;29;20083;-75
2022/07/18 00:31:11;;;;;;;5.07;2.55;;;25.90;62.50;;;;;;4824730;29;20023;-75
2022/07/18 00:33:36;;;;;;;6.95;2.53;;;25.90;62.60;;;;;;4824762;29;20031;-75
2022/07/18 00:36:02;;;;;;;7.10;3.10;;;25.90;62.80;;;;;;4824285;29;20117;-75
2022/07/18 00:38:28;;;;;;;5.00;2.60;;;25.90;63.10;;;;;;4824654;29;20484;-75
2022/07/18 00:40:54;;;;;;;6.65;3.00;;;25.90;62.90;;;;;;4823817;29;20086;-75
2022/07/18 00:43:19;;;;;;;7.97;2.70;;;25.90;63.00;;;;;;4824619;29;20043;-75
2022/07/18 00:45:47;;;;;;;4.22;2.50;;;25.90;63.20;;;;;;4824134;29;20502;-75
2022/07/18 00:48:13;;;;;;;8.57;2.50;;;25.70;63.50;;;;;;4824370;29;20034;-76
2022/07/18 00:50:40;;;;;;;4.97;2.78;;;25.90;63.10;;;;;;4838252;29;20026;-75
2022/07/18 00:53:07;;;;;;;5.68;2.97;;;25.80;63.30;;;;;;4828087;29;20030;-75
2022/07/18 00:55:33;;;;;;;6.13;2.67;;;25.80;63.30;;;;;;4824282;29;20023;-75
2022/07/18 00:58:00;;;;;;;4.88;2.60;;;25.90;63.00;;;;;;4842802;29;20033;-75
2022/07/18 01:03:09;;;;;;;6.13;2.70;;;25.90;62.90;;;;;;4842608;29;20040;-75
2022/07/18 01:05:35;;;;;;;7.45;2.92;;;25.70;63.50;;;;;;4828150;29;20403;-75
2022/07/18 01:08:02;;;;;;;5.45;2.83;;;25.70;63.50;;;;;;4836134;29;20034;-75
2022/07/18 01:10:27;;;;;;;3.60;2.63;;;25.70;63.70;;;;;;4837989;29;20129;-75
2022/07/18 01:12:53;;;;;;;5.05;2.70;;;25.70;63.60;;;;;;4822830;29;20121;-75
2022/07/18 01:15:19;;;;;;;5.30;2.83;;;25.80;63.60;;;;;;4823336;29;20034;-75
2022/07/18 01:17:44;;;;;;;6.57;2.70;;;25.80;63.50;;;;;;4823125;29;20038;-75
2022/07/18 01:20:11;;;;;;;5.82;2.80;;;25.70;63.80;;;;;;4824033;29;20480;-76
2022/07/18 01:22:38;;;;;;;9.50;2.55;;;25.70;63.90;;;;;;4824073;29;20039;-75
2022/07/18 01:25:06;;;;;;;5.65;2.53;;;25.80;64.00;;;;;;4823745;29;20061;-75
2022/07/18 01:27:31;;;;;;;5.18;2.55;;;25.70;63.70;;;;;;4823813;29;20026;-75
2022/07/18 01:29:57;;;;;;;4.55;2.70;;;25.70;64.10;;;;;;4823893;29;20392;-75
2022/07/18 01:32:23;;;;;;;7.10;2.47;;;25.60;64.10;;;;;;4832449;29;20094;-76
2022/07/18 01:34:50;;;;;;;4.53;2.25;;;25.50;64.20;;;;;;4842191;29;20491;-75
2022/07/18 01:37:16;;;;;;;11.43;3.17;;;25.60;64.10;;;;;;4840343;29;20042;-75
2022/07/18 01:39:43;;;;;;;6.35;2.80;;;25.40;64.20;;;;;;4824284;29;20151;-75
2022/07/18 01:42:10;;;;;;;6.82;2.72;;;25.40;64.50;;;;;;4823483;29;20098;-75
2022/07/18 01:44:37;;;;;;;13.45;3.30;;;25.40;64.00;;;;;;4823396;29;20030;-75
2022/07/18 01:47:05;;;;;;;6.35;2.97;;;25.50;63.90;;;;;;4824094;29;20042;-75
2022/07/18 01:49:30;;;;;;;4.13;2.60;;;25.40;64.40;;;;;;4823643;29;20387;-75
2022/07/18 01:51:57;;;;;;;5.78;2.75;;;25.40;64.50;;;;;;4825533;29;20030;-75
2022/07/18 01:54:25;;;;;;;3.45;2.53;;;25.40;64.10;;;;;;4827330;29;20083;-75
2022/07/18 01:56:50;;;;;;;4.75;2.70;;;25.30;64.00;;;;;;4826951;29;20030;-76
2022/07/18 01:59:17;;;;;;;3.85;2.40;;;25.40;63.80;;;;;;4826733;29;20031;-75
2022/07/18 02:01:43;;;;;;;6.05;2.70;;;25.40;63.60;;;;;;4827117;29;20087;-75
2022/07/18 02:04:09;;;;;;;4.25;2.70;;;25.40;63.60;;;;;;4827206;29;20026;-75
2022/07/18 02:06:35;;;;;;;4.50;2.80;;;25.40;63.80;;;;;;4827014;29;20082;-75
2022/07/18 02:09:00;;;;;;;5.40;2.65;;;25.30;64.00;;;;;;4826660;29;20059;-75
2022/07/18 02:11:27;;;;;;;9.48;2.95;;;25.30;64.10;;;;;;4825654;29;20047;-75
2022/07/18 02:13:53;;;;;;;4.57;2.50;;;25.40;64.00;;;;;;4826606;29;20050;-75
2022/07/18 02:16:19;;;;;;;6.72;2.78;;;25.20;64.00;;;;;;4826950;29;20030;-76
2022/07/18 02:18:44;;;;;;;4.28;2.67;;;25.10;64.00;;;;;;4826570;29;20034;-75
2022/07/18 02:21:10;;;;;;;6.38;2.50;;;25.20;64.50;;;;;;4826952;29;20069;-75
2022/07/18 02:23:36;;;;;;;3.85;2.40;;;25.10;64.30;;;;;;4840776;29;20131;-76
2022/07/18 02:26:03;;;;;;;3.55;2.22;;;25.10;64.30;;;;;;4826661;29;20026;-75
2022/07/18 02:28:28;;;;;;;4.70;2.80;;;25.10;64.30;;;;;;4826661;29;20464;-76
2022/07/18 02:30:54;;;;;;;7.53;2.63;;;25.10;64.40;;;;;;4826670;29;20034;-75
2022/07/18 02:33:20;;;;;;;4.28;2.67;;;25.10;64.60;;;;;;4826339;29;20034;-75
2022/07/18 02:35:45;;;;;;;6.38;3.08;;;25.10;64.70;;;;;;4826640;29;20034;-75
2022/07/18 02:38:11;;;;;;;4.00;2.47;;;24.90;65.00;;;;;;4826423;29;20065;-75
2022/07/18 02:40:37;;;;;;;4.60;2.60;;;24.70;65.70;;;;;;4826031;29;20067;-75
2022/07/18 02:43:04;;;;;;;3.85;2.50;;;24.70;66.30;;;;;;4825799;29;20518;-75
2022/07/18 02:45:30;;;;;;;4.05;2.45;;;24.60;66.50;;;;;;4826272;29;20437;-75
2022/07/18 02:47:56;;;;;;;3.05;2.30;;;24.60;66.50;;;;;;4826494;29;20030;-75
2022/07/18 02:50:22;;;;;;;5.40;3.15;;;24.70;66.50;;;;;;4826242;29;20110;-75
2022/07/18 02:52:48;;;;;;;4.32;2.67;;;24.70;66.50;;;;;;4840274;29;20455;-75
2022/07/18 02:55:14;;;;;;;4.18;2.80;;;24.80;66.10;;;;;;4826002;29;20499;-75
2022/07/18 02:57:40;;;;;;;4.95;2.90;;;24.80;66.80;;;;;;4825962;29;20030;-75
2022/07/18 03:00:13;;;;;;;4.47;2.50;;;24.50;66.80;;;;;;4826193;29;20030;-75
2022/07/18 03:02:39;;;;;;;6.85;2.72;;;24.50;67.40;;;;;;4825359;29;20087;-75
2022/07/18 03:05:06;;;;;;;6.45;3.08;;;24.40;67.80;;;;;;4825371;29;20041;-75
2022/07/18 03:07:32;;;;;;;5.13;3.05;;;24.40;68.10;;;;;;4826033;29;20046;-75
2022/07/18 03:09:57;;;;;;;4.65;3.03;;;24.50;67.80;;;;;;4825869;29;20050;-75
2022/07/18 03:12:23;;;;;;;6.55;3.15;;;24.40;68.30;;;;;;4825943;29;20087;-75
2022/07/18 03:14:49;;;;;;;7.85;3.38;;;24.30;68.90;;;;;;4825816;29;20494;-75
2022/07/18 03:17:15;;;;;;;6.05;3.15;;;24.30;69.10;;;;;;4843890;29;20034;-75
2022/07/18 03:19:41;;;;;;;7.97;2.97;;;24.30;69.50;;;;;;4844456;29;20038;-75
2022/07/18 03:22:07;;;;;;;5.07;2.67;;;24.30;69.80;;;;;;4844307;29;20037;-75
2022/07/18 03:24:33;;;;;;;5.00;3.10;;;24.20;70.10;;;;;;4843598;29;20034;-75
2022/07/18 03:26:59;;;;;;;5.70;3.08;;;24.30;70.30;;;;;;4844085;29;20030;-75
2022/07/18 03:29:24;;;;;;;4.20;2.80;;;24.40;70.20;;;;;;4844099;29;20030;-75
2022/07/18 03:31:50;;;;;;;3.13;2.60;;;24.30;70.50;;;;;;4826179;29;20072;-75
2022/07/18 03:34:16;;;;;;;8.23;2.75;;;24.30;70.70;;;;;;4825216;29;20086;-75
2022/07/18 03:36:42;;;;;;;5.97;3.20;;;24.30;71.20;;;;;;4825452;29;20086;-75
2022/07/18 03:39:09;;;;;;;4.25;2.80;;;24.20;71.70;;;;;;4826480;29;20034;-75
2022/07/18 03:41:35;;;;;;;5.47;2.90;;;24.20;72.20;;;;;;4839245;29;20100;-75
2022/07/18 03:44:01;;;;;;;6.35;2.70;;;24.00;73.10;;;;;;4807768;29;20160;-76
2022/07/18 03:46:27;;;;;;;4.68;2.90;;;24.00;73.40;;;;;;4807225;29;20459;-75
2022/07/18 03:48:52;;;;;;;6.35;3.10;;;24.10;73.80;;;;;;4807190;29;20035;-75
2022/07/18 03:51:18;;;;;;;9.18;3.22;;;24.10;73.80;;;;;;4820946;29;20027;-75
2022/07/18 03:53:44;;;;;;;7.40;2.80;;;24.00;74.30;;;;;;4808310;29;20068;-75
2022/07/18 03:56:09;;;;;;;5.93;2.95;;;24.10;74.50;;;;;;4842660;29;20042;-75
2022/07/18 03:58:35;;;;;;;4.22;2.72;;;24.20;74.70;;;;;;4830780;29;20027;-75
2022/07/18 04:01:01;;;;;;;5.75;3.42;;;24.10;75.00;;;;;;4823443;29;20044;-76
2022/07/18 04:03:27;;;;;;;5.03;3.35;;;24.10;75.60;;;;;;4825212;29;20073;-75
2022/07/18 04:05:53;;;;;;;6.75;3.42;;;24.00;76.20;;;;;;4824939;29;20037;-75
2022/07/18 04:08:18;;;;;;;5.32;3.15;;;23.90;76.90;;;;;;4824469;29;20030;-75
2022/07/18 04:10:44;;;;;;;6.90;3.20;;;23.80;77.60;;;;;;4824670;29;20046;-75
2022/07/18 04:13:10;;;;;;;8.88;3.22;;;23.90;77.70;;;;;;4824581;29;20116;-75
2022/07/18 04:15:37;;;;;;;5.28;2.90;;;23.70;78.20;;;;;;4824769;29;20029;-76
2022/07/18 04:18:04;;;;;;;11.27;3.10;;;23.90;78.00;;;;;;4825200;29;20053;-82
2022/07/18 04:20:30;;;;;;;5.28;3.45;;;23.80;78.30;;;;;;4825238;29;20114;-83
2022/07/18 04:22:58;;;;;;;8.20;3.30;;;23.90;78.60;;;;;;4824447;29;20747;-86
2022/07/18 04:25:27;;;;;;;7.97;3.17;;;23.90;78.70;;;;;;4834441;29;20475;-83
2022/07/18 04:27:54;;;;;;;6.43;3.13;;;23.90;78.90;;;;;;4857318;29;20037;-78
2022/07/18 04:30:21;;;;;;;6.78;3.45;;;24.00;78.30;;;;;;4843271;29;20485;-78
2022/07/18 04:32:48;;;;;;;5.07;3.45;;;24.00;78.60;;;;;;4842441;29;20030;-79
2022/07/18 04:35:13;;;;;;;4.70;2.80;;;23.70;79.90;;;;;;4824944;29;20487;-74
2022/07/18 04:37:40;;;;;;;9.18;2.95;;;23.60;80.70;;;;;;4824153;29;20144;-74
2022/07/18 04:40:07;;;;;;;7.43;3.20;;;23.70;80.60;;;;;;4824908;29;20391;-74
2022/07/18 04:42:33;;;;;;;7.85;3.50;;;23.70;81.50;;;;;;4815075;29;20053;-74
2022/07/18 04:44:59;;;;;;;4.97;3.05;;;23.70;81.40;;;;;;4845967;29;20503;-74
2022/07/18 04:47:26;;;;;;;6.57;3.30;;;23.70;82.00;;;;;;4824733;29;20076;-75
2022/07/18 04:49:52;;;;;;;6.78;3.30;;;23.50;83.00;;;;;;4824093;29;20023;-74
2022/07/18 04:52:18;;;;;;;4.82;3.22;;;23.50;83.50;;;;;;4824110;29;20038;-74
2022/07/18 04:54:44;;;;;;;6.53;3.50;;;23.60;83.00;;;;;;4823403;29;20109;-78
2022/07/18 04:57:11;;;;;;;5.97;3.60;;;23.60;83.30;;;;;;4824470;29;20581;-84
2022/07/18 04:59:38;;;;;;;4.90;3.38;;;23.60;83.80;;;;;;4824757;29;20034;-76
2022/07/18 05:02:04;;;;;;;6.40;3.55;;;23.60;84.00;;;;;;4824242;29;20086;-77
2022/07/18 05:04:29;;;;;;;6.35;3.42;;;23.60;84.40;;;;;;4853893;29;20455;-80
2022/07/18 05:06:55;;;;;;;5.75;3.40;;;23.60;84.50;;;;;;4818909;29;20018;-79
2022/07/18 05:09:21;;;;;;;8.25;3.80;;;23.60;85.10;;;;;;4821139;29;20133;-79
2022/07/18 05:11:46;;;;;;;8.38;3.40;;;23.50;85.80;;;;;;4821263;29;20022;-79
2022/07/18 05:14:12;;;;;;;8.68;3.90;;;23.60;86.10;;;;;;4823598;29;20038;-79
2022/07/18 05:16:38;;;;;;;5.78;3.92;;;23.70;86.30;;;;;;4823278;29;20091;-79
2022/07/18 05:19:04;;;;;;;9.88;3.67;;;23.70;85.80;;;;;;4824178;29;20034;-79
2022/07/18 05:21:30;;;;;;;5.70;4.03;;;23.90;85.70;;;;;;4823169;29;20033;-79
2022/07/18 05:23:56;;;;;;;10.50;4.10;;;23.70;86.60;;;;;;4822666;29;20542;-79
2022/07/18 05:26:22;;;;;;;8.95;3.92;;;23.80;86.20;;;;;;4822851;29;20105;-79
2022/07/18 05:28:47;;;;;;;7.78;3.88;;;23.80;86.70;;;;;;4823245;29;20034;-80
2022/07/18 05:31:13;;;;;;;6.43;3.85;;;23.90;86.20;;;;;;4823012;29;20491;-80
2022/07/18 05:33:39;;;;;;;9.57;3.72;;;24.00;86.10;;;;;;4823070;29;20026;-80
2022/07/18 05:36:05;;;;;;;6.85;3.83;;;23.90;86.60;;;;;;4818873;29;20022;-80
2022/07/18 05:38:31;;;;;;;8.20;4.10;;;24.00;86.60;;;;;;4835975;29;20062;-79
2022/07/18 05:40:56;;;;;;;5.55;3.40;;;24.10;86.50;;;;;;4823045;29;20057;-79
2022/07/18 05:43:22;;;;;;;5.13;3.55;;;24.10;86.30;;;;;;4820146;29;20503;-81
2022/07/18 05:45:48;;;;;;;6.03;3.50;;;24.20;85.80;;;;;;4822030;29;20042;-81
2022/07/18 05:48:13;;;;;;;5.30;3.55;;;24.20;85.80;;;;;;4828409;29;20030;-80
2022/07/18 05:50:39;;;;;;;7.95;3.53;;;24.20;85.80;;;;;;4822679;29;20022;-81
2022/07/18 05:53:05;;;;;;;9.77;3.47;;;24.10;86.10;;;;;;4822732;29;20109;-82
2022/07/18 05:55:31;;;;;;;8.02;3.63;;;24.40;82.90;;;;;;4823066;29;20423;-81
2022/07/18 05:57:56;;;;;;;10.77;3.70;;;24.70;82.00;;;;;;4821941;29;20030;-80
2022/07/18 06:00:22;;;;;;;4.95;2.90;;;24.70;80.70;;;;;;4837066;29;20059;-81
2022/07/18 06:02:49;;;;;;;6.43;3.97;;;24.80;81.40;;;;;;4822961;29;20050;-81
2022/07/18 06:05:15;;;;;;;5.53;3.03;;;24.90;80.20;;;;;;4821946;29;20514;-81
2022/07/18 06:07:41;;;;;;;6.28;3.78;;;24.90;79.80;;;;;;4822109;29;20042;-81
2022/07/18 06:10:07;;;;;;;5.90;3.22;;;25.00;78.90;;;;;;4821947;29;20046;-81
2022/07/18 06:12:33;;;;;;;10.38;3.38;;;25.20;78.90;;;;;;4821787;29;20030;-81
2022/07/18 06:15:00;;;;;;;6.65;3.67;;;25.20;78.60;;;;;;4815727;29;20084;-81
2022/07/18 06:17:28;;;;;;;5.68;3.22;;;25.20;78.30;;;;;;4832621;29;20394;-81
2022/07/18 06:19:55;;;;;;;6.00;3.40;;;25.20;78.50;;;;;;4818550;29;20503;-81
2022/07/18 06:22:22;;;;;;;7.20;3.95;;;25.20;78.10;;;;;;4835176;29;20038;-81
2022/07/18 06:24:47;;;;;;;7.93;3.03;;;25.40;78.70;;;;;;4821937;29;20070;-81
2022/07/18 06:27:13;;;;;;;4.25;3.00;;;25.30;78.80;;;;;;4834306;29;20062;-81
2022/07/18 06:29:39;;;;;;;7.65;3.58;;;25.30;77.90;;;;;;4821750;29;20026;-80
2022/07/18 06:32:05;;;;;;;6.75;2.95;;;25.40;77.60;;;;;;4819991;29;20030;-83
2022/07/18 06:34:30;;;;;;;4.20;2.90;;;25.40;77.50;;;;;;4820564;29;20030;-80
2022/07/18 06:36:56;;;;;;;8.35;3.08;;;25.50;76.90;;;;;;4834331;29;20036;-79
2022/07/18 06:39:22;;;;;;;4.97;2.70;;;25.60;76.60;;;;;;4824783;29;20033;-78
2022/07/18 06:41:47;;;;;;;4.13;2.83;;;25.70;76.50;;;;;;4824418;29;20030;-78
2022/07/18 06:44:13;;;;;;;4.85;2.60;;;25.70;75.10;;;;;;4823585;29;20071;-78
2022/07/18 06:46:39;;;;;;;4.57;2.50;;;25.90;74.10;;;;;;4820914;29;20117;-78
2022/07/18 06:49:05;;;;;;;13.30;3.13;;;26.00;73.70;;;;;;4827829;29;20078;-78
2022/07/18 06:51:31;;;;;;;3.97;2.40;;;26.10;73.00;;;;;;4825984;29;20022;-79
2022/07/18 06:53:57;;;;;;;6.95;2.63;;;26.10;72.50;;;;;;4825471;29;20029;-79
2022/07/18 06:56:25;;;;;;;6.25;2.95;;;26.20;71.70;;;;;;4833153;29;20037;-77
2022/07/18 06:58:52;;;;;;;4.70;2.47;;;26.30;70.70;;;;;;4824782;29;20018;-76
2022/07/18 07:01:20;;;;;;;6.75;2.38;;;26.50;70.40;;;;;;4824889;29;20063;-77
2022/07/18 07:03:46;;;;;;;8.57;2.65;;;26.60;67.80;;;;;;4824509;29;20023;-78
2022/07/18 07:06:12;;;;;;;4.57;2.40;;;26.70;68.00;;;;;;4824323;29;20026;-77
2022/07/18 07:08:38;;;;;;;4.70;2.50;;;26.80;67.10;;;;;;4825274;29;20499;-76
2022/07/18 07:11:04;;;;;;;8.70;2.47;;;26.90;67.20;;;;;;4825013;29;20037;-76
2022/07/18 07:13:30;;;;;;;3.67;2.20;;;27.00;66.70;;;;;;4824979;29;20102;-76
2022/07/18 07:15:56;;;;;;;5.03;2.33;;;27.10;66.10;;;;;;4824896;29;20037;-76
2022/07/18 07:18:21;;;;;;;5.57;2.70;;;27.10;65.20;;;;;;4818225;29;20031;-77
2022/07/18 07:20:47;;;;;;;7.43;2.22;;;27.40;65.10;;;;;;4839250;29;20039;-77
2022/07/18 07:23:13;;;;;;;4.25;2.22;;;27.40;64.90;;;;;;4824191;29;20034;-76
2022/07/18 07:25:39;;;;;;;8.07;2.60;;;27.50;63.40;;;;;;4838212;29;20051;-76
2022/07/18 07:28:05;;;;;;;5.55;3.03;;;27.60;62.60;;;;;;4825014;29;20026;-76
2022/07/18 07:30:32;;;;;;;8.75;2.40;;;27.60;62.60;;;;;;4824255;29;20038;-77
2022/07/18 07:32:59;;;;;;;9.43;2.67;;;27.60;62.70;;;;;;4834335;29;20025;-77
2022/07/18 07:35:25;;;;;;;11.38;2.88;;;27.70;62.60;;;;;;4824852;29;20045;-75
2022/07/18 07:37:57;;;;;;;13.77;2.95;;;27.90;62.10;;;;;;4824604;29;20105;-78
2022/07/18 07:40:25;;;;;;;10.52;2.85;;;28.00;61.70;;;;;;4830402;29;20124;-77
2022/07/18 07:42:51;;;;;;;7.13;2.08;;;28.00;60.70;;;;;;4828256;29;20027;-77
2022/07/18 07:45:18;;;;;;;3.80;2.40;;;28.20;60.30;;;;;;4824171;29;20038;-78
2022/07/18 07:47:44;;;;;;;5.07;2.35;;;28.30;60.10;;;;;;4824931;29;20015;-77
2022/07/18 07:50:11;;;;;;;7.13;2.40;;;28.40;59.80;;;;;;4822691;29;20456;-78
2022/07/18 07:52:38;;;;;;;5.80;2.20;;;28.50;59.70;;;;;;4823557;29;20079;-76
2022/07/18 07:55:05;;;;;;;4.00;2.08;;;28.50;59.40;;;;;;4825033;29;20035;-77
2022/07/18 07:57:32;;;;;;;7.55;2.40;;;28.70;59.50;;;;;;4821985;29;20416;-79
2022/07/18 07:59:57;;;;;;;11.57;3.20;;;28.80;58.90;;;;;;4838679;29;20170;-77
2022/07/18 08:02:23;;;;;;;10.13;3.17;;;28.80;58.50;;;;;;4833620;29;20510;-78
2022/07/18 08:04:50;;;;;;;6.97;2.50;;;28.90;58.10;;;;;;4820955;29;20046;-77
2022/07/18 08:45:05;;;;;;;4.63;1.98;;;31.40;50.80;;;;;;5038577;24;20485;-83
2022/07/18 08:47:32;;;;;;;6.47;2.50;;;31.50;50.90;;;;;;4833539;29;20034;-82
2022/07/18 08:49:58;;;;;;;4.60;2.47;;;31.60;50.60;;;;;;4855698;29;20054;-82
2022/07/18 08:52:25;;;;;;;9.55;2.47;;;31.70;49.70;;;;;;4855848;29;20049;-77
2022/07/18 08:54:51;;;;;;;8.48;2.30;;;31.80;49.70;;;;;;4826426;29;20034;-77
2022/07/18 08:57:17;;;;;;;7.05;2.67;;;32.00;48.70;;;;;;4823935;29;20051;-76
2022/07/18 08:59:43;;;;;;;5.85;2.45;;;32.20;48.70;;;;;;4822307;29;20054;-75
2022/07/18 09:02:09;;;;;;;11.95;2.72;;;32.40;48.80;;;;;;4822969;29;20046;-75
2022/07/18 09:04:41;;;;;;;8.45;2.40;;;32.60;47.80;;;;;;4823167;29;20027;-76
2022/07/18 09:07:11;;;;;;;7.18;2.40;;;32.80;47.90;;;;;;4822392;29;20062;-74
2022/07/18 09:09:37;;;;;;;5.47;2.05;;;32.90;47.70;;;;;;4823213;29;20134;-78
2022/07/18 09:12:09;;;;;;;9.60;2.42;;;33.20;47.30;;;;;;4823099;29;20026;-77
2022/07/18 09:14:44;;;;;;;8.93;2.80;;;33.00;46.20;;;;;;4822625;29;20031;-74
2022/07/18 09:17:18;;;;;;;2.80;2.08;;;32.90;45.70;;;;;;4822804;29;20030;-75
2022/07/18 09:20:08;;;;;;;6.10;2.38;;;33.10;45.80;;;;;;4822750;29;20149;-74
2022/07/18 09:22:35;;;;;;;10.35;2.28;;;33.20;45.20;;;;;;4822261;29;20046;-75
2022/07/18 09:25:04;;;;;;;7.32;2.47;;;33.40;44.90;;;;;;4822326;29;20026;-75
2022/07/18 09:27:34;;;;;;;5.47;2.35;;;33.20;45.10;;;;;;4822200;29;20058;-75
2022/07/18 09:30:10;;;;;;;4.78;2.10;;;33.30;45.20;;;;;;4823122;29;20052;-74
2022/07/18 09:32:38;;;;;;;5.28;2.08;;;33.60;45.30;;;;;;4823657;29;20560;-78
2022/07/18 09:35:11;;;;;;;6.80;2.05;;;33.50;45.30;;;;;;4837271;29;20026;-78
2022/07/18 09:37:39;;;;;;;7.07;2.40;;;33.90;45.30;;;;;;4823473;29;20034;-78
2022/07/18 09:40:20;;;;;;;4.25;1.90;;;33.60;44.80;;;;;;4822972;29;20035;-78
2022/07/18 09:42:50;;;;;;;;;;;33.80;45.00;;;;;;4822883;29;20022;-78
2022/07/18 09:45:20;;;;;;;5.57;2.58;;;33.70;44.90;;;;;;4823243;29;20393;-78
2022/07/18 09:48:13;;;;;;;9.57;2.10;;;34.30;44.50;;;;;;4837172;29;20079;-78
2022/07/18 09:50:43;;;;;;;5.75;1.98;;;34.10;43.20;;;;;;4855792;29;20039;-78
2022/07/18 09:53:13;;;;;;;7.68;2.13;;;33.70;43.70;;;;;;4823664;29;20027;-78
2022/07/18 09:55:59;;;;;;;7.68;2.20;;;33.80;43.80;;;;;;4824098;29;20030;-78
2022/07/18 09:58:28;;;;;;;10.32;2.20;;;33.80;43.70;;;;;;4825060;29;20121;-78
2022/07/18 10:00:56;;;;;;;7.75;1.95;;;33.90;43.40;;;;;;4823533;29;20531;-78
2022/07/18 10:03:23;;;;;;;7.05;2.28;;;34.00;43.40;;;;;;4822714;29;20034;-81
2022/07/18 10:05:52;;;;;;;7.75;2.30;;;34.30;43.40;;;;;;4821877;29;20038;-79
2022/07/18 10:08:21;;;;;;;11.52;2.33;;;34.50;43.00;;;;;;4818801;29;20093;-77
2022/07/18 10:10:48;;;;;;;6.07;2.03;;;34.30;42.90;;;;;;4820930;29;20034;-77
2022/07/18 10:13:15;;;;;;;7.63;2.60;;;34.70;42.30;;;;;;4820607;29;20061;-76
2022/07/18 10:15:43;;;;;;;7.43;2.30;;;34.90;42.00;;;;;;4832411;29;20030;-76
2022/07/18 10:18:12;;;;;;;7.55;2.28;;;34.80;42.30;;;;;;4823324;29;20039;-79
2022/07/18 10:21:12;;;;;;;4.90;2.20;;;34.80;42.70;;;;;;4823630;29;20056;-81
2022/07/18 10:23:38;;;;;;;5.60;2.00;;;34.70;42.80;;;;;;4827477;29;20146;-76
2022/07/18 10:26:12;;;;;;;8.95;2.40;;;34.30;43.50;;;;;;4825532;29;20526;-81
2022/07/18 10:29:00;;;;;;;8.38;2.20;;;34.00;42.80;;;;;;4831788;29;20034;-86
2022/07/18 10:31:32;;;;;;;4.20;2.00;;;34.00;43.20;;;;;;4826523;29;20078;-81
2022/07/18 10:34:07;;;;;;;9.13;2.05;;;34.70;43.20;;;;;;4824030;29;20042;-81
2022/07/18 10:36:40;;;;;;;5.10;2.40;;;34.80;42.70;;;;;;4832642;29;20027;-77
2022/07/18 10:39:20;;;;;;;5.70;2.35;;;34.80;42.20;;;;;;4826308;29;20042;-79
2022/07/18 10:41:46;;;;;;;10.82;2.22;;;35.10;42.80;;;;;;4826458;29;20113;-83
2022/07/18 10:44:27;;;;;;;9.32;2.60;;;35.50;42.60;;;;;;4825615;29;20806;-80
2022/07/18 10:47:05;;;;;;;18.52;2.53;;;35.50;41.90;;;;;;4825137;29;20034;-83
2022/07/18 10:49:52;;;;;;;10.45;2.40;;;35.70;41.60;;;;;;4832016;29;20026;-83
2022/07/18 10:52:29;;;;;;;7.43;2.20;;;35.20;42.20;;;;;;4825704;29;20036;-83
2022/07/18 10:55:16;;;;;;;10.05;2.67;;;35.30;41.50;;;;;;4833236;29;20025;-83
2022/07/18 10:57:49;;;;;;;6.82;2.63;;;35.40;41.50;;;;;;4838597;29;20038;-83
2022/07/18 11:00:25;;;;;;;10.85;2.65;;;34.90;41.80;;;;;;4808255;29;20027;-83
2022/07/18 11:03:00;;;;;;;9.60;2.60;;;35.20;42.50;;;;;;4819871;29;20079;-82
2022/07/18 11:05:25;;;;;;;6.00;2.30;;;35.00;41.70;;;;;;4826284;29;20030;-83
2022/07/18 11:07:57;;;;;;;4.78;2.08;;;35.30;41.50;;;;;;4854669;29;20030;-83
2022/07/18 11:10:41;;;;;;;6.05;2.10;;;35.60;41.40;;;;;;4827656;29;20390;-83
2022/07/18 11:13:37;;;;;;;8.98;2.47;;;35.90;41.50;;;;;;4825988;29;20045;-83
2022/07/18 11:16:25;;;;;;;12.77;2.45;;;35.70;42.20;;;;;;4828136;29;20059;-82
2022/07/18 11:18:51;;;;;;;5.88;2.45;;;35.50;40.60;;;;;;4825681;29;20030;-83
2022/07/18 11:21:20;;;;;;;5.65;2.13;;;35.40;41.30;;;;;;4826014;29;20026;-83
2022/07/18 11:23:49;;;;;;;3.92;2.50;;;35.90;40.20;;;;;;4824668;29;20038;-83
2022/07/18 11:26:23;;;;;;;6.55;2.20;;;36.10;40.00;;;;;;4824428;29;20065;-83
2022/07/18 11:28:58;;;;;;;4.78;2.50;;;36.20;39.90;;;;;;4826697;29;20034;-83
2022/07/18 11:31:25;;;;;;;10.98;2.50;;;35.80;39.60;;;;;;4844143;29;20597;-82
2022/07/18 11:33:51;;;;;;;5.97;2.20;;;35.70;39.20;;;;;;4832493;29;20037;-83
2022/07/18 11:36:28;;;;;;;7.18;2.30;;;35.70;39.70;;;;;;4825537;29;20034;-82
2022/07/18 11:38:57;;;;;;;9.93;2.67;;;35.80;38.90;;;;;;4824700;29;20076;-83
2022/07/18 11:41:23;;;;;;;4.72;2.00;;;35.80;39.60;;;;;;4825259;29;20088;-83
2022/07/18 11:43:52;;;;;;;8.60;2.22;;;35.90;40.00;;;;;;4825036;29;20422;-83
2022/07/18 11:46:19;;;;;;;5.93;2.00;;;36.20;39.10;;;;;;4825446;29;20145;-83
2022/07/18 11:48:59;;;;;;;5.45;1.98;;;36.40;37.50;;;;;;4847023;29;20026;-83
2022/07/18 11:51:25;;;;;;;6.78;2.05;;;36.40;38.60;;;;;;4839116;29;20041;-83
2022/07/18 11:53:53;;;;;;;5.07;1.98;;;36.40;37.00;;;;;;4823171;29;20495;-83
2022/07/18 11:56:20;;;;;;;5.65;2.10;;;36.30;37.30;;;;;;4823517;29;20507;-81
2022/07/18 11:58:48;;;;;;;5.47;2.67;;;36.20;38.30;;;;;;4824761;29;20030;-81
2022/07/18 12:01:15;;;;;;;6.28;2.28;;;36.30;37.80;;;;;;4824979;29;20033;-82
2022/07/18 12:03:49;;;;;;;7.72;2.40;;;36.10;37.90;;;;;;4825333;29;20042;-76
2022/07/18 12:06:18;;;;;;;6.93;2.22;;;36.60;37.20;;;;;;4830750;29;20030;-82
2022/07/18 12:08:49;;;;;;;5.20;2.22;;;36.30;37.60;;;;;;4823107;29;20058;-82
2022/07/18 12:11:21;;;;;;;3.92;2.30;;;36.70;37.70;;;;;;4852050;29;20033;-82
2022/07/18 12:14:09;;;;;;;13.18;2.83;;;36.80;37.80;;;;;;4824063;29;20030;-82
2022/07/18 12:16:47;;;;;;;3.22;2.13;;;36.10;38.10;;;;;;4823835;29;20439;-82
2022/07/18 12:19:21;;;;;;;9.23;2.47;;;36.00;38.30;;;;;;4822133;29;20038;-82
2022/07/18 12:21:49;;;;;;;9.48;2.95;;;36.30;38.70;;;;;;4824137;29;20034;-81
2022/07/18 12:24:23;;;;;;;6.82;2.40;;;35.90;38.70;;;;;;4837422;29;20082;-82
2022/07/18 12:27:06;;;;;;;3.90;2.65;;;36.30;38.60;;;;;;4823655;29;20030;-82
2022/07/18 12:29:32;;;;;;;9.18;3.10;;;36.90;38.60;;;;;;4823434;29;20031;-82
2022/07/18 12:31:58;;;;;;;12.20;2.60;;;36.80;39.10;;;;;;4823381;29;20026;-82
2022/07/18 12:34:23;;;;;;;6.47;2.55;;;37.20;38.20;;;;;;4823695;29;20039;-83
2022/07/18 12:36:59;;;;;;;12.15;2.53;;;37.00;38.10;;;;;;4822714;29;20034;-82
2022/07/18 12:39:33;;;;;;;7.32;2.80;;;37.00;38.80;;;;;;4822211;29;20058;-82
2022/07/18 12:42:00;;;;;;;3.95;2.25;;;36.90;39.00;;;;;;4830565;29;20495;-82
2022/07/18 12:44:27;;;;;;;5.07;2.75;;;37.00;38.50;;;;;;4821439;29;20058;-83
2022/07/18 12:46:53;;;;;;;5.00;2.58;;;37.60;38.90;;;;;;4822648;29;20033;-82
2022/07/18 12:49:20;;;;;;;5.60;2.40;;;37.80;37.70;;;;;;4823038;29;20026;-83
2022/07/18 12:51:45;;;;;;;8.55;2.80;;;37.20;37.30;;;;;;4825639;29;20519;-79
2022/07/18 12:54:11;;;;;;;9.40;2.63;;;36.90;37.90;;;;;;4828723;29;20082;-82
2022/07/18 12:56:37;;;;;;;6.32;2.83;;;37.20;37.70;;;;;;4823574;29;20033;-82
2022/07/18 12:59:03;;;;;;;6.38;2.53;;;36.90;37.50;;;;;;4823164;29;20030;-82
2022/07/18 13:01:29;;;;;;;9.25;2.40;;;37.00;38.20;;;;;;4822978;29;20041;-82
2022/07/18 13:03:54;;;;;;;7.43;2.63;;;37.30;38.30;;;;;;4832102;29;20030;-82
2022/07/18 13:06:20;;;;;;;8.50;2.70;;;37.40;37.50;;;;;;4823909;29;20083;-82
2022/07/18 13:08:46;;;;;;;7.68;2.70;;;37.60;37.10;;;;;;4823005;29;20026;-83
2022/07/18 13:11:11;;;;;;;13.25;2.65;;;37.10;36.40;;;;;;4823855;29;20030;-83
2022/07/18 13:13:37;;;;;;;7.47;2.40;;;36.90;37.00;;;;;;4837092;29;20023;-82
2022/07/18 13:16:03;;;;;;;5.80;2.20;;;36.90;36.20;;;;;;4826000;29;20034;-83
2022/07/18 13:18:29;;;;;;;9.52;2.83;;;36.70;36.20;;;;;;4826128;29;20034;-83
2022/07/18 13:20:54;;;;;;;9.65;2.70;;;36.50;35.90;;;;;;4822616;29;20435;-81
2022/07/18 13:23:20;;;;;;;9.07;2.70;;;36.60;36.50;;;;;;4822901;29;20517;-82
2022/07/18 13:25:46;;;;;;;8.38;2.65;;;36.70;36.90;;;;;;4828671;29;20026;-81
2022/07/18 13:28:12;;;;;;;5.88;2.67;;;37.00;36.30;;;;;;4822637;29;20521;-79
2022/07/18 13:30:37;;;;;;;5.28;2.60;;;36.90;36.60;;;;;;4822722;29;20556;-84